Time;durP1;ratioP1;P1;durP2;ratioP2;P2;SDS_P1;SDS_P2;PMS_P1;PMS_P2;Temp;Humidity;BMP_temperature;BMP_pressure;BME280_temperature;BME280_humidity;BME280_pressure;Samples;Min_cycle;Max_cycle;Signal;HPM_P1;HPM_P2
2023/05/21 00:01:05;;;;;;;18.97;16.70;;;15.90;69.50;;;;;;6249013;28;20237;-85
2023/05/21 00:04:08;;;;;;;18.90;17.10;;;15.90;69.80;;;;;;6261089;28;20586;-84
2023/05/21 00:07:14;;;;;;;18.43;16.80;;;15.80;69.90;;;;;;6249315;28;20234;-85
2023/05/21 00:10:18;;;;;;;19.40;17.73;;;15.80;70.10;;;;;;6254937;28;20248;-84
2023/05/21 00:13:22;;;;;;;19.03;17.43;;;15.80;70.10;;;;;;6246742;28;20239;-85
2023/05/21 00:16:25;;;;;;;18.07;16.43;;;15.70;70.20;;;;;;6263300;28;20658;-87
2023/05/21 00:19:31;;;;;;;17.83;16.13;;;15.70;70.20;;;;;;6249666;28;20233;-83
2023/05/21 00:22:35;;;;;;;20.43;18.57;;;15.60;70.30;;;;;;6262301;28;20242;-84
2023/05/21 00:25:39;;;;;;;18.97;17.27;;;15.60;70.50;;;;;;6239414;28;20264;-86
2023/05/21 00:28:42;;;;;;;20.33;18.27;;;15.70;70.50;;;;;;6242906;28;20242;-83
2023/05/21 00:31:45;;;;;;;18.73;17.07;;;15.80;70.60;;;;;;6255467;28;20272;-84
2023/05/21 00:34:49;;;;;;;18.37;16.73;;;15.70;70.60;;;;;;6253652;28;20335;-84
2023/05/21 00:37:52;;;;;;;17.93;16.13;;;15.70;70.50;;;;;;6251000;28;20230;-86
2023/05/21 00:40:57;;;;;;;18.70;16.83;;;15.60;70.60;;;;;;6256874;28;20239;-85
2023/05/21 00:44:00;;;;;;;19.67;17.93;;;15.60;70.80;;;;;;6258770;28;20651;-86
2023/05/21 00:47:05;;;;;;;19.93;16.97;;;15.60;70.90;;;;;;6268866;28;20803;-85
2023/05/21 00:50:09;;;;;;;18.63;16.93;;;15.60;70.90;;;;;;6267035;28;20818;-85
2023/05/21 00:53:14;;;;;;;18.80;16.80;;;15.60;70.90;;;;;;6241947;28;20230;-86
2023/05/21 00:56:20;;;;;;;18.03;16.43;;;15.60;71.00;;;;;;6262958;28;20853;-86
2023/05/21 00:59:24;;;;;;;16.63;15.13;;;15.50;71.00;;;;;;6268689;28;20238;-83
2023/05/21 01:02:27;;;;;;;19.03;17.23;;;15.50;70.90;;;;;;6270051;28;20647;-85
2023/05/21 01:05:31;;;;;;;18.80;17.10;;;15.50;71.20;;;;;;6250958;28;20240;-85
2023/05/21 01:08:36;;;;;;;18.77;17.17;;;15.40;71.40;;;;;;6260514;28;20249;-85
2023/05/21 01:11:43;;;;;;;18.53;16.83;;;15.40;71.40;;;;;;6249946;28;20324;-84
2023/05/21 01:14:47;;;;;;;17.53;15.87;;;15.40;71.50;;;;;;6245841;28;20238;-85
2023/05/21 01:17:51;;;;;;;17.80;16.30;;;15.30;71.60;;;;;;6257722;28;20284;-86
2023/05/21 01:20:55;;;;;;;19.83;18.23;;;15.40;71.80;;;;;;6264275;28;20234;-84
2023/05/21 01:24:00;;;;;;;18.77;17.17;;;15.40;71.90;;;;;;6256665;28;20767;-83
2023/05/21 01:27:06;;;;;;;21.47;18.00;;;15.40;71.90;;;;;;6263695;28;20732;-85
2023/05/21 01:30:10;;;;;;;19.10;17.53;;;15.40;72.10;;;;;;6260682;28;20237;-86
2023/05/21 01:33:19;;;;;;;20.27;18.37;;;15.40;72.10;;;;;;6253782;28;20241;-84
2023/05/21 01:36:26;;;;;;;19.13;17.43;;;15.30;72.30;;;;;;6280731;28;20244;-84
2023/05/21 01:39:37;;;;;;;20.13;18.23;;;15.30;72.20;;;;;;6259091;28;20242;-85
2023/05/21 01:42:44;;;;;;;21.63;19.53;;;15.30;72.20;;;;;;6265077;28;20245;-85
2023/05/21 01:45:48;;;;;;;20.17;18.47;;;15.30;72.50;;;;;;6259261;28;20241;-86
2023/05/21 01:48:54;;;;;;;20.67;18.67;;;15.30;72.50;;;;;;6282200;28;20249;-84
2023/05/21 01:51:58;;;;;;;19.93;18.20;;;15.20;72.50;;;;;;6295905;28;20290;-84
2023/05/21 01:55:03;;;;;;;21.67;19.73;;;15.20;72.70;;;;;;6281501;28;20214;-86
2023/05/21 01:58:07;;;;;;;20.43;18.57;;;15.20;72.80;;;;;;6292585;28;20282;-84
2023/05/21 02:01:10;;;;;;;21.47;19.53;;;15.20;72.70;;;;;;6297182;28;20252;-85
2023/05/21 02:04:13;;;;;;;22.80;20.67;;;15.20;72.80;;;;;;6292801;28;20252;-84
2023/05/21 02:07:17;;;;;;;21.30;19.30;;;15.20;73.00;;;;;;6299212;28;20240;-85
2023/05/21 02:10:21;;;;;;;22.47;20.37;;;15.10;73.00;;;;;;6286728;28;20237;-83
2023/05/21 02:13:25;;;;;;;20.80;18.77;;;15.00;73.20;;;;;;6286634;28;20218;-84
2023/05/21 02:16:29;;;;;;;22.43;20.17;;;15.00;73.00;;;;;;6286678;28;20310;-85
2023/05/21 02:19:32;;;;;;;23.43;21.27;;;15.00;73.00;;;;;;6281799;28;20302;-83
2023/05/21 02:22:38;;;;;;;22.90;20.63;;;15.00;73.40;;;;;;6270231;28;20245;-85
2023/05/21 02:25:45;;;;;;;22.07;19.97;;;15.00;73.70;;;;;;6257097;28;20766;-84
2023/05/21 02:28:48;;;;;;;23.13;20.77;;;14.90;73.70;;;;;;6224789;28;20231;-86
2023/05/21 02:31:51;;;;;;;22.27;20.20;;;14.90;73.90;;;;;;6273350;28;20320;-86
2023/05/21 02:34:54;;;;;;;22.93;20.83;;;14.90;73.80;;;;;;6258368;28;20245;-85
2023/05/21 02:37:58;;;;;;;22.30;20.07;;;14.90;74.00;;;;;;6249335;28;20235;-85
2023/05/21 02:41:02;;;;;;;22.60;20.50;;;14.80;74.00;;;;;;6254783;28;20237;-85
2023/05/21 02:44:05;;;;;;;22.90;20.80;;;14.80;74.10;;;;;;6272165;28;20230;-84
2023/05/21 02:47:11;;;;;;;23.80;21.60;;;14.80;74.30;;;;;;6270872;28;20234;-85
2023/05/21 02:50:14;;;;;;;24.63;22.20;;;14.70;74.40;;;;;;6263151;28;20230;-84
2023/05/21 02:53:18;;;;;;;24.53;22.23;;;14.70;74.70;;;;;;6263987;28;20250;-82
2023/05/21 02:56:23;;;;;;;23.30;21.17;;;14.70;74.70;;;;;;6271179;28;20717;-85
2023/05/21 02:59:26;;;;;;;25.47;23.10;;;14.70;74.70;;;;;;6259054;28;20740;-84
2023/05/21 03:02:30;;;;;;;30.47;22.83;;;14.60;75.10;;;;;;6264128;28;20254;-84
2023/05/21 03:05:33;;;;;;;26.33;23.73;;;14.60;75.10;;;;;;6282000;28;20245;-84
2023/05/21 03:08:37;;;;;;;26.37;23.87;;;14.60;75.20;;;;;;6283428;28;20223;-83
2023/05/21 03:11:43;;;;;;;27.97;25.27;;;14.70;75.10;;;;;;6284481;28;20218;-83
2023/05/21 03:14:46;;;;;;;26.87;24.20;;;14.70;75.30;;;;;;6283445;28;20223;-83
2023/05/21 03:17:50;;;;;;;26.00;23.70;;;14.70;75.40;;;;;;6290700;28;20250;-85
2023/05/21 03:20:57;;;;;;;26.73;24.13;;;14.70;75.30;;;;;;6287909;28;20304;-82
2023/05/21 03:24:01;;;;;;;27.63;24.93;;;14.70;75.30;;;;;;6297617;28;20459;-85
2023/05/21 03:27:06;;;;;;;26.53;24.07;;;14.70;75.30;;;;;;6297258;28;20244;-84
2023/05/21 03:30:11;;;;;;;27.57;24.77;;;14.70;75.20;;;;;;6276951;28;20229;-87
2023/05/21 03:33:14;;;;;;;29.17;26.20;;;14.80;75.20;;;;;;6254878;28;20238;-85
2023/05/21 03:36:17;;;;;;;28.87;25.83;;;14.70;75.50;;;;;;6243909;28;20231;-85
2023/05/21 03:39:20;;;;;;;26.93;24.53;;;14.70;75.40;;;;;;6258105;28;20262;-84
2023/05/21 03:42:25;;;;;;;28.43;25.80;;;14.70;75.50;;;;;;6253804;28;20729;-84
2023/05/21 03:45:28;;;;;;;27.63;24.90;;;14.80;75.40;;;;;;6258698;28;20234;-84
2023/05/21 03:48:31;;;;;;;26.90;24.33;;;14.80;75.50;;;;;;6248838;28;20254;-83
2023/05/21 03:51:34;;;;;;;27.97;25.03;;;14.80;75.50;;;;;;6253274;28;20733;-81
2023/05/21 03:54:38;;;;;;;24.73;22.50;;;14.80;75.40;;;;;;6265550;28;20242;-85
2023/05/21 03:57:43;;;;;;;24.70;22.43;;;14.90;75.30;;;;;;6245449;28;20326;-82
2023/05/21 04:00:47;;;;;;;23.73;21.53;;;14.90;75.20;;;;;;6248286;28;20319;-85
2023/05/21 04:03:50;;;;;;;25.17;22.90;;;14.90;75.10;;;;;;6253818;28;20250;-84
2023/05/21 04:06:54;;;;;;;26.13;23.77;;;14.90;75.20;;;;;;6253756;28;20241;-85
2023/05/21 04:10:00;;;;;;;26.23;23.77;;;15.00;75.20;;;;;;6259724;28;20618;-85
2023/05/21 04:13:05;;;;;;;28.97;25.57;;;15.00;75.30;;;;;;6255269;28;20230;-86
2023/05/21 04:16:08;;;;;;;28.57;25.83;;;15.00;75.30;;;;;;6259816;28;20253;-82
2023/05/21 04:19:11;;;;;;;29.50;26.37;;;15.10;75.20;;;;;;6268074;28;21021;-82
2023/05/21 04:22:15;;;;;;;28.63;25.93;;;15.20;75.20;;;;;;6260351;28;20273;-83
2023/05/21 04:25:19;;;;;;;28.23;25.67;;;15.20;75.20;;;;;;6261637;28;20613;-84
2023/05/21 04:28:27;;;;;;;27.97;25.20;;;15.30;75.10;;;;;;6259874;28;20237;-83
2023/05/21 04:31:31;;;;;;;27.13;24.63;;;15.40;75.00;;;;;;6254241;28;20253;-84
2023/05/21 04:34:34;;;;;;;29.53;26.83;;;15.40;74.70;;;;;;6260968;28;20303;-83
2023/05/21 04:37:40;;;;;;;28.77;26.17;;;15.50;74.60;;;;;;6264679;28;20234;-83
2023/05/21 04:40:44;;;;;;;27.57;25.10;;;15.60;74.30;;;;;;6257895;28;20249;-84
2023/05/21 04:43:48;;;;;;;27.80;25.30;;;15.70;74.10;;;;;;6257125;28;20738;-85
2023/05/21 04:46:51;;;;;;;27.33;24.53;;;15.80;73.80;;;;;;6268760;28;20339;-84
2023/05/21 04:49:55;;;;;;;27.60;25.03;;;16.00;73.60;;;;;;6261366;28;20321;-82
2023/05/21 04:52:58;;;;;;;28.00;25.00;;;16.10;73.20;;;;;;6260802;28;20303;-84
2023/05/21 04:56:02;;;;;;;27.70;23.97;;;16.20;73.00;;;;;;6255600;28;20285;-77
2023/05/21 04:59:07;;;;;;;26.13;23.73;;;16.40;72.80;;;;;;6257466;28;20265;-77
2023/05/21 05:02:10;;;;;;;24.83;22.50;;;16.60;72.00;;;;;;6262109;28;20351;-77
2023/05/21 05:05:13;;;;;;;27.07;24.50;;;16.80;71.60;;;;;;6256083;28;20252;-77
2023/05/21 05:08:16;;;;;;;25.67;23.37;;;17.00;70.80;;;;;;6261155;28;20273;-78
2023/05/21 05:11:19;;;;;;;24.83;22.63;;;17.10;70.30;;;;;;6259563;28;20260;-77
2023/05/21 05:14:24;;;;;;;26.77;23.30;;;17.20;70.10;;;;;;6255514;28;20230;-79
2023/05/21 05:17:27;;;;;;;25.20;22.80;;;17.40;70.20;;;;;;6256477;28;20306;-83
2023/05/21 05:20:30;;;;;;;24.60;22.40;;;17.50;69.50;;;;;;6270683;28;20225;-82
2023/05/21 05:23:33;;;;;;;23.37;21.37;;;17.60;69.40;;;;;;6245571;28;20249;-84
2023/05/21 05:26:36;;;;;;;23.40;21.37;;;17.80;68.70;;;;;;6253423;28;20279;-82
2023/05/21 05:29:41;;;;;;;23.27;21.33;;;18.00;68.40;;;;;;6248895;28;20269;-83
2023/05/21 05:32:44;;;;;;;24.23;21.77;;;18.10;68.10;;;;;;6261887;28;20234;-83
2023/05/21 05:35:47;;;;;;;24.13;20.83;;;18.20;68.00;;;;;;6260612;28;20314;-82
2023/05/21 05:38:51;;;;;;;22.53;20.73;;;18.40;68.00;;;;;;6256284;28;20323;-83
2023/05/21 05:41:54;;;;;;;23.13;21.13;;;18.40;67.70;;;;;;6263226;28;20319;-83
2023/05/21 05:44:59;;;;;;;24.63;22.23;;;18.50;67.20;;;;;;6263928;28;20735;-82
2023/05/21 05:48:02;;;;;;;23.53;21.37;;;18.60;66.70;;;;;;6250743;28;20269;-82
2023/05/21 05:51:06;;;;;;;23.10;21.00;;;18.80;66.50;;;;;;6253553;28;20257;-81
2023/05/21 05:54:09;;;;;;;22.20;20.00;;;18.80;66.20;;;;;;6265852;28;20230;-80
2023/05/21 05:57:12;;;;;;;20.83;18.80;;;19.00;66.10;;;;;;6256357;28;20222;-83
2023/05/21 06:00:17;;;;;;;21.57;19.67;;;19.10;65.50;;;;;;6250505;28;20288;-83
2023/05/21 06:03:20;;;;;;;21.40;19.70;;;19.10;65.40;;;;;;6259005;28;20235;-84
2023/05/21 06:06:23;;;;;;;21.17;19.37;;;19.20;65.40;;;;;;6256604;28;20309;-82
2023/05/21 06:09:26;;;;;;;22.97;20.77;;;19.30;64.80;;;;;;6254994;28;20313;-80
2023/05/21 06:12:29;;;;;;;21.10;19.23;;;19.50;64.30;;;;;;6264157;28;20745;-80
2023/05/21 06:15:34;;;;;;;20.20;18.60;;;19.50;64.40;;;;;;6257987;28;20660;-81
2023/05/21 06:18:37;;;;;;;20.33;18.63;;;19.60;64.00;;;;;;6250281;28;20746;-81
2023/05/21 06:21:40;;;;;;;21.43;19.43;;;19.50;64.10;;;;;;6256166;28;20835;-85
2023/05/21 06:24:43;;;;;;;20.47;18.77;;;19.50;64.00;;;;;;6264213;28;20276;-82
2023/05/21 06:27:46;;;;;;;22.53;20.47;;;19.60;64.10;;;;;;6264099;28;20625;-79
2023/05/21 06:30:52;;;;;;;24.87;22.47;;;19.70;63.70;;;;;;6253199;28;20234;-81
2023/05/21 06:33:56;;;;;;;22.53;20.57;;;19.50;63.80;;;;;;6262564;28;20295;-81
2023/05/21 06:36:59;;;;;;;22.90;20.80;;;19.40;64.30;;;;;;6245115;28;20237;-82
2023/05/21 06:40:03;;;;;;;20.77;18.97;;;19.40;64.30;;;;;;6249867;28;20252;-80
2023/05/21 06:43:06;;;;;;;20.53;18.83;;;19.40;64.40;;;;;;6252322;28;20833;-81
2023/05/21 06:46:11;;;;;;;21.43;19.53;;;19.50;64.60;;;;;;6248483;28;20736;-81
2023/05/21 06:49:14;;;;;;;18.33;16.93;;;19.60;64.50;;;;;;6253772;28;20234;-80
2023/05/21 06:52:17;;;;;;;20.73;19.17;;;19.70;64.40;;;;;;6256491;28;20265;-84
2023/05/21 06:55:21;;;;;;;20.07;18.27;;;19.70;63.90;;;;;;6255606;28;20234;-79
2023/05/21 06:58:24;;;;;;;19.90;18.30;;;19.80;63.70;;;;;;6259467;28;20265;-83
2023/05/21 07:01:29;;;;;;;18.33;16.90;;;19.90;63.50;;;;;;6256936;28;20250;-78
2023/05/21 07:04:33;;;;;;;20.33;18.53;;;19.80;63.70;;;;;;6253135;28;20241;-77
2023/05/21 07:07:37;;;;;;;22.20;20.03;;;19.90;63.50;;;;;;6256925;28;20245;-79
2023/05/21 07:10:41;;;;;;;20.53;18.87;;;20.00;63.30;;;;;;6258466;28;20261;-78
2023/05/21 07:13:47;;;;;;;20.77;18.67;;;20.10;63.00;;;;;;6259738;28;20241;-77
2023/05/21 07:16:58;;;;;;;20.60;18.60;;;20.30;63.30;;;;;;6215303;28;20372;-79
2023/05/21 07:20:06;;;;;;;22.20;20.10;;;20.50;62.60;;;;;;6256403;28;20258;-79
2023/05/21 07:23:09;;;;;;;20.23;18.20;;;20.60;62.10;;;;;;6251252;28;21391;-78
2023/05/21 07:26:12;;;;;;;18.73;17.10;;;20.80;61.50;;;;;;6262251;28;20250;-78
2023/05/21 07:29:16;;;;;;;20.63;18.73;;;21.10;61.50;;;;;;6263447;28;20246;-78
2023/05/21 07:32:21;;;;;;;17.67;16.07;;;21.30;60.80;;;;;;6256234;28;20230;-76
2023/05/21 07:35:24;;;;;;;19.53;17.67;;;21.50;60.20;;;;;;6266414;28;20237;-80
2023/05/21 07:38:27;;;;;;;17.97;16.67;;;21.50;60.30;;;;;;6263245;28;20279;-78
2023/05/21 07:41:31;;;;;;;18.30;16.83;;;21.70;59.80;;;;;;6269635;28;20234;-79
2023/05/21 07:44:34;;;;;;;18.83;17.27;;;21.70;59.40;;;;;;6261981;28;20238;-78
2023/05/21 07:47:39;;;;;;;18.30;16.80;;;21.80;60.30;;;;;;6255951;28;20238;-78
2023/05/21 07:50:42;;;;;;;16.87;15.67;;;21.90;60.60;;;;;;6257451;28;20853;-77
2023/05/21 07:53:45;;;;;;;17.47;15.97;;;21.90;60.00;;;;;;6255546;28;20704;-78
2023/05/21 07:56:48;;;;;;;18.00;16.70;;;22.10;59.00;;;;;;6257399;28;20275;-77
2023/05/21 07:59:51;;;;;;;17.40;16.00;;;22.00;59.40;;;;;;6266626;28;20319;-81
2023/05/21 08:02:56;;;;;;;16.83;15.33;;;22.00;59.30;;;;;;6251935;28;20334;-82
2023/05/21 08:05:59;;;;;;;14.13;13.23;;;22.00;59.40;;;;;;6256006;28;20652;-84
2023/05/21 08:09:03;;;;;;;16.10;14.70;;;22.20;59.40;;;;;;6245850;28;20238;-83
2023/05/21 08:12:07;;;;;;;17.77;16.13;;;22.50;59.50;;;;;;6255062;28;20258;-82
2023/05/21 08:15:11;;;;;;;14.60;13.50;;;22.60;58.50;;;;;;6255291;28;20382;-83
2023/05/21 08:18:17;;;;;;;17.33;15.87;;;22.70;58.40;;;;;;6255277;28;20300;-83
2023/05/21 08:21:20;;;;;;;17.53;15.93;;;22.80;58.00;;;;;;6257120;28;20316;-83
2023/05/21 08:24:25;;;;;;;15.53;14.20;;;22.70;58.00;;;;;;6255664;28;20237;-82
2023/05/21 08:27:28;;;;;;;16.50;15.10;;;22.90;58.30;;;;;;6258843;28;20304;-83
2023/05/21 08:30:31;;;;;;;16.13;14.77;;;23.00;57.50;;;;;;6251396;28;20249;-82
2023/05/21 08:33:37;;;;;;;15.80;14.57;;;23.10;57.60;;;;;;6255609;28;20292;-82
2023/05/21 08:36:42;;;;;;;15.23;14.13;;;23.20;57.70;;;;;;6256266;28;20237;-80
2023/05/21 08:39:45;;;;;;;14.17;13.17;;;23.20;56.90;;;;;;6248016;28;20242;-81
2023/05/21 08:42:50;;;;;;;16.77;15.43;;;23.30;56.70;;;;;;6254021;28;20296;-79
2023/05/21 08:45:54;;;;;;;15.53;14.13;;;23.50;56.50;;;;;;6244487;28;20323;-80
2023/05/21 08:48:59;;;;;;;14.37;13.00;;;23.70;56.70;;;;;;6254104;28;20516;-79
2023/05/21 08:52:02;;;;;;;14.27;13.17;;;24.00;56.40;;;;;;6256770;28;20268;-77
2023/05/21 08:55:07;;;;;;;13.73;12.73;;;24.20;55.00;;;;;;6253107;28;20313;-77
2023/05/21 08:58:10;;;;;;;14.17;13.07;;;24.40;54.80;;;;;;6260949;28;20843;-78
2023/05/21 09:01:17;;;;;;;14.93;13.13;;;24.50;54.20;;;;;;6265809;28;20238;-77
2023/05/21 09:04:23;;;;;;;12.80;11.90;;;24.70;54.00;;;;;;6263643;28;20233;-81
2023/05/21 09:07:28;;;;;;;13.03;12.13;;;24.70;53.90;;;;;;6264417;28;20230;-78
2023/05/21 09:10:36;;;;;;;13.80;12.80;;;24.80;53.70;;;;;;6263862;28;20231;-79
2023/05/21 09:13:40;;;;;;;13.93;12.60;;;24.80;53.50;;;;;;6266902;28;20227;-79
2023/05/21 09:16:47;;;;;;;13.77;12.47;;;24.80;53.40;;;;;;6260811;28;20227;-78
2023/05/21 09:20:12;;;;;;;14.13;13.03;;;25.00;53.20;;;;;;6264580;28;20738;-77
2023/05/21 09:23:17;;;;;;;13.87;12.57;;;25.00;53.00;;;;;;6261585;28;20234;-78
2023/05/21 09:26:21;;;;;;;14.07;12.83;;;24.60;53.60;;;;;;6258147;28;20315;-77
2023/05/21 09:29:26;;;;;;;12.87;11.97;;;24.50;53.80;;;;;;6267859;28;20234;-77
2023/05/21 09:32:29;;;;;;;13.30;12.23;;;24.60;53.70;;;;;;6261169;28;20311;-79
2023/05/21 09:35:34;;;;;;;11.77;11.07;;;24.70;53.60;;;;;;6269785;28;20341;-78
2023/05/21 09:38:39;;;;;;;12.37;11.30;;;24.80;53.90;;;;;;6261584;28;20289;-77
2023/05/21 09:41:42;;;;;;;12.53;11.67;;;25.00;53.60;;;;;;6268601;28;20261;-78
2023/05/21 09:44:47;;;;;;;12.40;11.20;;;25.00;53.10;;;;;;6259863;28;20288;-79
2023/05/21 09:47:51;;;;;;;12.17;11.37;;;25.20;52.60;;;;;;6259026;28;20253;-77
2023/05/21 09:51:10;;;;;;;15.37;11.00;;;25.20;53.20;;;;;;6258184;28;20238;-77
2023/05/21 09:54:14;;;;;;;11.13;10.33;;;25.40;52.50;;;;;;6246264;28;20245;-78
2023/05/21 09:57:22;;;;;;;11.03;10.07;;;25.60;52.50;;;;;;6261046;28;20234;-78
2023/05/21 10:00:28;;;;;;;11.83;10.80;;;25.60;52.10;;;;;;6251139;28;20242;-79
2023/05/21 10:03:33;;;;;;;12.50;11.30;;;25.60;51.80;;;;;;6260766;28;20242;-77
2023/05/21 10:06:43;;;;;;;11.50;10.43;;;25.50;52.20;;;;;;6265927;28;20230;-78
2023/05/21 10:09:48;;;;;;;11.43;10.30;;;25.50;51.80;;;;;;6257154;28;20264;-80
2023/05/21 10:12:55;;;;;;;10.73;9.90;;;25.50;51.90;;;;;;6258991;28;20777;-78
2023/05/21 10:16:02;;;;;;;10.30;9.67;;;25.40;51.70;;;;;;6266635;28;20242;-78
2023/05/21 10:19:09;;;;;;;11.50;10.67;;;25.40;51.70;;;;;;6258658;28;20239;-78
2023/05/21 10:22:15;;;;;;;11.97;10.83;;;25.50;52.30;;;;;;6254835;28;20885;-77
2023/05/21 10:25:20;;;;;;;11.63;10.93;;;25.60;51.70;;;;;;6236884;28;20245;-78
2023/05/21 10:28:23;;;;;;;12.13;11.13;;;25.60;51.70;;;;;;6269577;28;20253;-77
2023/05/21 10:31:28;;;;;;;11.73;10.67;;;25.80;51.50;;;;;;6259823;28;20679;-78
2023/05/21 10:34:32;;;;;;;10.00;9.27;;;25.80;51.20;;;;;;6257971;28;20234;-76
2023/05/21 10:37:37;;;;;;;10.57;9.57;;;25.80;51.30;;;;;;6261129;28;20314;-76
2023/05/21 10:40:40;;;;;;;11.13;10.03;;;25.80;51.30;;;;;;6259463;28;20234;-77
2023/05/21 10:43:51;;;;;;;11.57;9.53;;;26.00;51.20;;;;;;6258551;28;20307;-79
2023/05/21 10:47:34;;;;;;;10.20;9.40;;;26.20;50.60;;;;;;6253551;28;20241;-77
2023/05/21 10:51:19;;;;;;;11.07;10.17;;;26.40;50.20;;;;;;6251489;28;20272;-78
2023/05/21 10:54:48;;;;;;;11.13;10.23;;;26.40;50.80;;;;;;6261459;28;20234;-79
2023/05/21 10:58:12;;;;;;;10.63;9.77;;;26.50;50.20;;;;;;6257175;28;20258;-77
2023/05/21 11:01:18;;;;;;;9.73;8.87;;;26.70;49.60;;;;;;6255309;28;20866;-76
2023/05/21 11:04:26;;;;;;;8.60;7.77;;;26.70;49.50;;;;;;6262788;28;20237;-76
2023/05/21 11:07:52;;;;;;;9.57;8.47;;;26.80;49.40;;;;;;6254938;28;20234;-76
2023/05/21 11:10:58;;;;;;;10.00;8.73;;;27.00;48.80;;;;;;6262890;28;20246;-78
2023/05/21 11:14:01;;;;;;;8.67;7.93;;;27.10;48.30;;;;;;6256896;28;20265;-77
2023/05/21 11:17:10;;;;;;;8.73;7.83;;;27.10;48.10;;;;;;6252526;28;20334;-78
2023/05/21 11:20:14;;;;;;;9.60;8.23;;;27.10;47.70;;;;;;6256138;28;20268;-77
2023/05/21 11:23:17;;;;;;;9.23;8.40;;;26.60;48.20;;;;;;6263509;28;20299;-76
2023/05/21 11:26:23;;;;;;;9.80;9.10;;;26.70;48.20;;;;;;6251371;28;20311;-77
2023/05/21 11:29:32;;;;;;;9.43;8.63;;;26.80;48.50;;;;;;6253997;28;20234;-77
2023/05/21 11:32:39;;;;;;;8.77;8.27;;;27.00;48.40;;;;;;6258469;28;20245;-76
2023/05/21 11:35:58;;;;;;;9.27;8.60;;;27.20;47.70;;;;;;6256702;28;20230;-77
2023/05/21 11:39:14;;;;;;;9.47;8.47;;;27.30;47.50;;;;;;6259274;28;20301;-78
2023/05/21 11:42:29;;;;;;;8.70;8.13;;;27.30;47.40;;;;;;6257257;28;20238;-74
2023/05/21 11:45:33;;;;;;;8.47;7.50;;;27.40;47.30;;;;;;6251234;28;20268;-77
2023/05/21 11:48:37;;;;;;;8.40;7.90;;;27.40;47.20;;;;;;6249797;28;20249;-76
2023/05/21 11:51:41;;;;;;;7.87;7.23;;;27.40;47.30;;;;;;6250211;28;20245;-78
2023/05/21 11:54:47;;;;;;;8.30;7.43;;;27.50;46.70;;;;;;6261354;28;20242;-78
2023/05/21 11:57:53;;;;;;;8.37;7.77;;;27.70;46.60;;;;;;6253385;28;20246;-76
2023/05/21 12:00:57;;;;;;;9.00;8.03;;;27.80;46.60;;;;;;6259332;28;20242;-77
2023/05/21 12:04:03;;;;;;;7.33;6.93;;;27.80;46.50;;;;;;6261761;28;20394;-77
2023/05/21 12:07:07;;;;;;;8.43;7.70;;;28.00;46.10;;;;;;6254520;28;20242;-77
2023/05/21 12:10:11;;;;;;;8.32;7.63;;;28.10;46.10;;;;;;6264804;28;20316;-78
2023/05/21 12:13:19;;;;;;;7.38;6.88;;;28.30;46.00;;;;;;6256694;28;20234;-77
2023/05/21 12:16:22;;;;;;;9.98;7.40;;;28.40;46.40;;;;;;6258462;28;20443;-78
2023/05/21 12:19:26;;;;;;;8.10;7.15;;;28.50;45.10;;;;;;6255440;28;20245;-77
2023/05/21 12:22:30;;;;;;;7.30;6.70;;;28.40;45.90;;;;;;6259431;28;20628;-77
2023/05/21 12:25:36;;;;;;;7.53;7.03;;;28.50;45.20;;;;;;6256468;28;20238;-75
2023/05/21 12:28:40;;;;;;;8.13;7.10;;;28.30;45.20;;;;;;6260130;28;20515;-75
2023/05/21 12:31:48;;;;;;;6.85;6.40;;;28.20;45.20;;;;;;6255191;28;20258;-78
2023/05/21 12:34:54;;;;;;;8.03;7.43;;;28.00;45.50;;;;;;6256478;28;20255;-78
2023/05/21 12:37:57;;;;;;;9.90;6.77;;;28.00;45.50;;;;;;6256677;28;20375;-79
2023/05/21 12:41:04;;;;;;;8.77;7.87;;;28.00;45.50;;;;;;6269601;28;20289;-80
2023/05/21 12:44:08;;;;;;;7.50;7.00;;;28.10;45.00;;;;;;6270021;28;20245;-80
2023/05/21 12:47:12;;;;;;;9.15;8.40;;;28.30;45.10;;;;;;6259510;28;20246;-79
2023/05/21 12:50:20;;;;;;;8.40;7.40;;;28.30;44.80;;;;;;6271074;28;20314;-78
2023/05/21 12:53:23;;;;;;;7.10;6.47;;;28.30;44.90;;;;;;6268043;28;20240;-80
2023/05/21 12:56:26;;;;;;;7.63;7.13;;;28.50;44.50;;;;;;6262675;28;20241;-78
2023/05/21 12:59:43;;;;;;;6.82;6.43;;;28.40;44.60;;;;;;6268747;28;20238;-78
2023/05/21 13:02:46;;;;;;;7.93;7.35;;;28.40;44.80;;;;;;6264404;28;20250;-80
2023/05/21 13:05:58;;;;;;;7.80;6.60;;;28.30;44.60;;;;;;6265886;28;20236;-80
2023/05/21 13:09:01;;;;;;;7.28;6.57;;;28.30;44.60;;;;;;6256996;28;20246;-79
2023/05/21 13:12:05;;;;;;;7.15;6.63;;;28.40;44.50;;;;;;6257011;28;20242;-79
2023/05/21 13:15:10;;;;;;;7.80;6.97;;;28.50;44.80;;;;;;6268523;28;20237;-78
2023/05/21 13:18:14;;;;;;;7.38;6.88;;;28.10;45.10;;;;;;6265775;28;20265;-78
2023/05/21 13:21:17;;;;;;;10.18;7.82;;;28.10;45.20;;;;;;6263755;28;20776;-79
2023/05/21 13:24:20;;;;;;;7.82;7.40;;;28.00;45.40;;;;;;6260141;28;20753;-78
2023/05/21 13:27:23;;;;;;;8.80;8.00;;;27.90;45.80;;;;;;6249084;28;20352;-79
2023/05/21 13:30:28;;;;;;;8.03;7.33;;;27.80;46.00;;;;;;6250301;28;20257;-79
2023/05/21 13:33:31;;;;;;;8.43;7.80;;;27.50;45.90;;;;;;6259406;28;20233;-79
2023/05/21 13:36:36;;;;;;;8.67;7.87;;;27.40;46.00;;;;;;6274242;28;20293;-78
2023/05/21 13:39:39;;;;;;;9.03;8.33;;;27.30;46.60;;;;;;6257988;28;20231;-78
2023/05/21 13:42:42;;;;;;;8.43;7.60;;;27.20;46.90;;;;;;6265852;28;20245;-83
2023/05/21 13:45:47;;;;;;;8.83;8.13;;;27.40;47.40;;;;;;6260429;28;20235;-80
2023/05/21 13:48:51;;;;;;;9.27;8.33;;;27.50;46.60;;;;;;6268271;28;20249;-79
2023/05/21 13:51:56;;;;;;;8.83;8.03;;;27.60;46.00;;;;;;6270514;28;20244;-79
2023/05/21 13:54:59;;;;;;;8.67;8.03;;;27.70;45.70;;;;;;6268431;28;20237;-79
2023/05/21 13:58:03;;;;;;;8.00;7.30;;;28.00;45.80;;;;;;6268458;28;20375;-78
2023/05/21 14:01:08;;;;;;;7.80;7.27;;;28.10;45.00;;;;;;6260523;28;20291;-80
2023/05/21 14:04:11;;;;;;;7.38;6.97;;;28.10;45.20;;;;;;6267888;28;20460;-78
2023/05/21 14:07:15;;;;;;;7.67;6.70;;;28.20;45.40;;;;;;6260137;28;20827;-77
2023/05/21 14:10:19;;;;;;;7.25;6.85;;;28.10;44.90;;;;;;6269875;28;20238;-81
2023/05/21 14:13:22;;;;;;;7.10;6.70;;;28.20;44.90;;;;;;6259804;28;20230;-79
2023/05/21 14:16:27;;;;;;;7.30;6.65;;;28.30;44.90;;;;;;6263959;28;20323;-77
2023/05/21 14:19:30;;;;;;;7.38;6.85;;;28.30;44.90;;;;;;6259268;28;20234;-79
2023/05/21 14:22:33;;;;;;;7.18;6.68;;;28.30;44.80;;;;;;6260897;28;20653;-80
2023/05/21 14:25:36;;;;;;;7.45;7.05;;;28.50;44.40;;;;;;6260156;28;20233;-80
2023/05/21 14:28:40;;;;;;;7.95;7.45;;;28.40;44.40;;;;;;6252496;28;20239;-79
2023/05/21 14:31:45;;;;;;;6.95;6.55;;;28.30;44.80;;;;;;6258375;28;20303;-81
2023/05/21 14:34:48;;;;;;;7.93;7.22;;;28.20;44.60;;;;;;6254660;28;20230;-79
2023/05/21 14:37:52;;;;;;;9.90;6.45;;;28.20;44.80;;;;;;6269378;28;20238;-79
2023/05/21 14:40:55;;;;;;;6.65;6.20;;;28.00;44.60;;;;;;6263341;28;20602;-80
2023/05/21 14:43:59;;;;;;;7.15;6.75;;;28.00;44.70;;;;;;6265048;28;20850;-82
2023/05/21 14:47:03;;;;;;;8.02;7.38;;;28.00;44.70;;;;;;6259152;28;20481;-79
2023/05/21 14:50:07;;;;;;;7.13;6.72;;;28.00;44.60;;;;;;6266603;28;20237;-85
2023/05/21 14:53:11;;;;;;;7.17;6.57;;;28.00;44.70;;;;;;6262591;28;20234;-84
2023/05/21 14:56:15;;;;;;;7.53;6.68;;;28.10;44.80;;;;;;6263092;28;20252;-83
2023/05/21 14:59:18;;;;;;;6.75;6.25;;;28.20;44.80;;;;;;6254855;28;20295;-82
2023/05/21 15:02:24;;;;;;;7.72;6.20;;;28.30;44.30;;;;;;6260141;28;20295;-82
2023/05/21 15:05:28;;;;;;;9.73;6.78;;;28.10;44.90;;;;;;6269233;28;20258;-82
2023/05/21 15:08:32;;;;;;;7.40;5.90;;;28.10;44.40;;;;;;6263880;28;20234;-83
2023/05/21 15:11:35;;;;;;;7.05;5.97;;;28.20;44.10;;;;;;6266016;28;20340;-81
2023/05/21 15:14:38;;;;;;;6.75;6.30;;;28.30;44.00;;;;;;6261372;28;20238;-80
2023/05/21 15:17:42;;;;;;;7.93;5.80;;;28.40;44.60;;;;;;6259300;28;20241;-84
2023/05/21 15:20:46;;;;;;;7.20;6.50;;;28.30;44.10;;;;;;6261104;28;20293;-80
2023/05/21 15:23:49;;;;;;;6.93;6.30;;;28.10;44.50;;;;;;6270016;28;20231;-82
2023/05/21 15:26:52;;;;;;;8.60;6.13;;;27.90;44.30;;;;;;6263947;28;20659;-80
2023/05/21 15:29:55;;;;;;;6.97;6.57;;;27.80;44.50;;;;;;6266435;28;20234;-82
2023/05/21 15:33:00;;;;;;;6.10;5.80;;;27.70;44.50;;;;;;6276966;28;20245;-82
2023/05/21 15:36:03;;;;;;;7.28;6.38;;;27.70;45.20;;;;;;6269251;28;20352;-80
2023/05/21 15:39:06;;;;;;;6.37;5.67;;;27.70;44.60;;;;;;6270655;28;20705;-83
2023/05/21 15:42:11;;;;;;;9.20;6.67;;;27.50;44.70;;;;;;6258164;28;20245;-83
2023/05/21 15:45:14;;;;;;;6.90;6.50;;;27.40;44.70;;;;;;6259366;28;20237;-84